createdAt,value
2023-03-20T00:02:03.094Z,86.80
2023-03-20T00:04:31.417Z,86.40
2023-03-20T00:06:59.284Z,86.40
2023-03-20T00:09:28.319Z,86.70
2023-03-20T00:11:57.589Z,86.80
2023-03-20T00:14:26.271Z,87.00
2023-03-20T00:16:54.340Z,86.90
2023-03-20T00:19:24.288Z,86.70
2023-03-20T00:21:53.578Z,87.10
2023-03-20T00:24:21.734Z,89.40
2023-03-20T00:26:51.393Z,86.90
2023-03-20T00:29:23.557Z,86.90
2023-03-20T00:31:52.456Z,87.20
2023-03-20T00:34:23.460Z,87.30
2023-03-20T00:36:51.646Z,87.50
2023-03-20T00:39:19.695Z,87.10
2023-03-20T00:41:52.604Z,87.10
2023-03-20T00:44:25.040Z,88.10
2023-03-20T00:46:55.807Z,87.60
2023-03-20T00:49:26.410Z,87.60
2023-03-20T00:51:54.362Z,87.70
2023-03-20T00:54:22.346Z,87.10
2023-03-20T00:56:56.720Z,87.20
2023-03-20T00:59:29.734Z,87.50
2023-03-20T01:01:58.684Z,87.30
2023-03-20T01:04:32.392Z,86.90
2023-03-20T01:07:01.629Z,87.30
2023-03-20T01:09:29.559Z,87.10
2023-03-20T01:11:57.509Z,86.70
2023-03-20T01:14:26.812Z,86.60
2023-03-20T01:16:54.794Z,86.60
2023-03-20T01:19:22.771Z,86.30
2023-03-20T01:21:50.683Z,86.10
2023-03-20T01:24:18.825Z,86.00
2023-03-20T01:26:46.939Z,85.80
2023-03-20T01:29:20.247Z,85.70
2023-03-20T01:31:49.592Z,85.80
2023-03-20T01:34:17.764Z,85.70
2023-03-20T01:36:50.694Z,85.80
2023-03-20T01:39:19.131Z,85.50
2023-03-20T01:41:48.030Z,85.00
2023-03-20T01:44:22.313Z,85.00
2023-03-20T01:46:53.787Z,85.10
2023-03-20T01:49:59.019Z,85.00
2023-03-20T01:52:26.938Z,85.10
2023-03-20T01:54:54.867Z,84.50
2023-03-20T01:57:25.685Z,87.30
2023-03-20T01:59:57.956Z,84.80
2023-03-20T02:02:31.725Z,84.80
2023-03-20T02:05:04.136Z,84.80
2023-03-20T02:07:33.771Z,84.70
2023-03-20T02:10:03.418Z,84.50
2023-03-20T02:12:32.338Z,84.60
2023-03-20T02:15:00.764Z,84.20
2023-03-20T02:17:30.300Z,84.20
2023-03-20T02:20:07.631Z,84.20
2023-03-20T02:23:08.176Z,84.70
2023-03-20T02:25:59.203Z,84.80
2023-03-20T02:29:05.713Z,84.60
2023-03-20T02:32:04.791Z,83.70
2023-03-20T02:35:08.759Z,84.90
2023-03-20T02:37:50.937Z,86.10
2023-03-20T02:40:26.468Z,84.80
2023-03-20T02:43:03.254Z,85.10
2023-03-20T02:45:34.754Z,85.20
2023-03-20T02:48:14.748Z,87.70
2023-03-20T02:50:50.307Z,85.20
2023-03-20T02:53:32.649Z,85.20
2023-03-20T02:56:09.479Z,85.30
2023-03-20T02:58:44.590Z,85.30
2023-03-20T03:01:16.319Z,85.30
2023-03-20T03:03:49.553Z,85.20
2023-03-20T03:06:23.138Z,85.30
2023-03-20T03:09:02.243Z,85.00
2023-03-20T03:11:31.668Z,85.00
2023-03-20T03:14:00.209Z,84.70
2023-03-20T03:16:31.517Z,84.70
2023-03-20T03:19:09.956Z,84.70
2023-03-20T03:21:40.630Z,84.50
2023-03-20T03:24:39.907Z,84.50
2023-03-20T03:27:17.488Z,86.80
2023-03-20T03:29:49.728Z,84.60
2023-03-20T03:32:26.775Z,84.50
2023-03-20T03:34:55.286Z,84.40
2023-03-20T03:37:38.044Z,84.40
2023-03-20T03:40:18.041Z,84.40
2023-03-20T03:42:54.638Z,84.40
2023-03-20T03:45:30.470Z,84.30
2023-03-20T03:48:04.005Z,84.30
2023-03-20T03:50:38.326Z,84.30
2023-03-20T03:53:11.912Z,84.30
2023-03-20T03:55:45.878Z,84.30
2023-03-20T03:58:20.159Z,84.00
2023-03-20T04:00:50.609Z,86.20
2023-03-20T04:03:20.724Z,84.40
2023-03-20T04:05:49.806Z,84.50
2023-03-20T04:08:17.628Z,86.50
2023-03-20T04:10:46.979Z,84.50
2023-03-20T04:13:16.352Z,84.40
2023-03-20T04:15:45.090Z,84.40
2023-03-20T04:18:17.430Z,84.50
2023-03-20T04:20:46.588Z,84.80
2023-03-20T04:23:15.172Z,84.80
2023-03-20T04:25:44.329Z,84.80
2023-03-20T04:28:16.308Z,84.60
2023-03-20T04:30:48.126Z,84.60
2023-03-20T04:33:16.383Z,84.80
2023-03-20T04:35:45.226Z,84.70
2023-03-20T04:38:13.233Z,87.20
2023-03-20T04:40:41.217Z,84.30
2023-03-20T04:43:09.071Z,84.60
2023-03-20T04:45:38.572Z,84.70
2023-03-20T04:48:07.478Z,84.70
2023-03-20T04:50:35.280Z,84.80
2023-03-20T04:53:03.149Z,84.80
2023-03-20T04:55:31.012Z,84.80
2023-03-20T04:57:58.825Z,84.70
2023-03-20T05:00:28.829Z,84.80
2023-03-20T05:02:58.116Z,85.00
2023-03-20T05:05:26.073Z,85.00
2023-03-20T05:07:53.985Z,85.10
2023-03-20T05:10:21.988Z,85.00
2023-03-20T05:12:49.777Z,85.10
2023-03-20T05:15:18.009Z,85.50
2023-03-20T05:17:45.884Z,85.10
2023-03-20T05:20:15.918Z,85.20
2023-03-20T05:22:44.468Z,85.10
2023-03-20T05:25:12.281Z,85.30
2023-03-20T05:27:40.252Z,85.20
2023-03-20T05:30:08.881Z,85.10
2023-03-20T05:32:36.994Z,85.20
2023-03-20T05:35:05.394Z,85.30
2023-03-20T05:37:34.677Z,85.40
2023-03-20T05:40:03.205Z,85.40
2023-03-20T05:42:31.328Z,85.40
2023-03-20T05:44:59.322Z,85.40
2023-03-20T05:47:27.131Z,85.30
2023-03-20T05:49:54.973Z,85.20
2023-03-20T05:52:22.814Z,85.20
2023-03-20T05:54:52.115Z,85.60
2023-03-20T05:57:20.256Z,85.40
2023-03-20T05:59:48.164Z,85.30
2023-03-20T06:02:16.058Z,85.40
2023-03-20T06:04:45.804Z,85.40
2023-03-20T06:07:14.456Z,85.20
2023-03-20T06:09:43.095Z,85.30
2023-03-20T06:12:12.575Z,85.50
2023-03-20T06:14:40.434Z,85.50
2023-03-20T06:17:08.275Z,85.50
2023-03-20T06:19:36.718Z,85.60
2023-03-20T06:22:04.617Z,85.50
2023-03-20T06:24:33.205Z,85.50
2023-03-20T06:27:01.037Z,85.50
2023-03-20T06:29:31.188Z,85.60
2023-03-20T06:31:58.980Z,85.60
2023-03-20T06:34:27.677Z,85.80
2023-03-20T06:36:55.624Z,85.70
2023-03-20T06:39:23.497Z,85.60
2023-03-20T06:41:51.407Z,85.60
2023-03-20T06:44:19.261Z,85.50
2023-03-20T06:46:48.532Z,85.60
2023-03-20T06:49:16.878Z,85.70
2023-03-20T06:51:47.826Z,85.70
2023-03-20T06:54:15.748Z,85.60
2023-03-20T06:56:44.210Z,86.00
2023-03-20T06:59:12.125Z,85.50
2023-03-20T07:01:40.250Z,86.00
2023-03-20T07:04:09.450Z,86.10
2023-03-20T07:06:37.929Z,86.10
2023-03-20T07:09:05.914Z,86.10
2023-03-20T07:11:34.154Z,86.20
2023-03-20T07:14:02.786Z,86.20
2023-03-20T07:16:30.770Z,86.20
2023-03-20T07:18:58.602Z,86.10
2023-03-20T07:21:28.007Z,86.00
2023-03-20T07:23:55.850Z,86.10
2023-03-20T07:26:23.644Z,86.20
2023-03-20T07:28:51.548Z,86.00
2023-03-20T07:31:21.957Z,86.10
2023-03-20T07:33:50.005Z,86.30
2023-03-20T07:36:17.877Z,86.20
2023-03-20T07:38:47.356Z,86.20
2023-03-20T07:41:15.353Z,86.30
2023-03-20T07:43:44.853Z,86.20
2023-03-20T07:46:13.168Z,86.30
2023-03-20T07:48:41.053Z,86.20
2023-03-20T07:51:09.503Z,86.20
2023-03-20T07:53:37.522Z,86.20
2023-03-20T07:56:07.865Z,85.90
2023-03-20T07:58:36.109Z,86.20
2023-03-20T08:01:04.721Z,85.90
2023-03-20T08:03:33.066Z,86.20
2023-03-20T08:06:01.750Z,86.10
2023-03-20T08:08:29.826Z,86.10
2023-03-20T08:10:57.625Z,86.10
2023-03-20T08:13:26.824Z,86.10
2023-03-20T08:15:54.666Z,86.20
2023-03-20T08:18:22.528Z,86.20
2023-03-20T08:20:50.837Z,86.00
2023-03-20T08:23:20.795Z,85.80
2023-03-20T08:25:49.693Z,85.90
2023-03-20T08:28:18.088Z,85.90
2023-03-20T08:30:48.045Z,85.90
2023-03-20T08:33:17.305Z,85.80
2023-03-20T08:35:55.798Z,85.70
2023-03-20T08:38:23.724Z,85.50
2023-03-20T08:40:51.938Z,85.10
2023-03-20T08:43:20.017Z,85.20
2023-03-20T08:45:49.362Z,85.00
2023-03-20T08:48:17.756Z,84.90
2023-03-20T08:50:46.872Z,84.80
2023-03-20T08:53:14.861Z,84.80
2023-03-20T08:55:44.887Z,84.80
2023-03-20T08:58:13.344Z,84.60
2023-03-20T09:00:43.139Z,84.70
2023-03-20T09:03:15.665Z,84.60
2023-03-20T09:05:47.014Z,84.90
2023-03-20T09:08:15.835Z,85.70
2023-03-20T09:10:46.238Z,85.10
2023-03-20T09:13:26.706Z,85.00
2023-03-20T09:15:56.779Z,84.90
2023-03-20T09:18:26.868Z,85.20
2023-03-20T09:20:56.412Z,85.30
2023-03-20T09:23:24.471Z,85.60
2023-03-20T09:25:52.654Z,85.30
2023-03-20T09:28:20.824Z,85.10
2023-03-20T09:30:49.549Z,85.40
2023-03-20T09:33:18.568Z,85.50
2023-03-20T09:35:47.933Z,85.90
2023-03-20T09:38:16.071Z,86.40
2023-03-20T09:40:52.495Z,86.40
2023-03-20T09:43:33.004Z,87.00
2023-03-20T09:46:13.240Z,87.10
2023-03-20T09:48:47.312Z,87.30
2023-03-20T09:51:25.439Z,87.40
2023-03-20T09:54:01.029Z,88.00
2023-03-20T09:56:31.497Z,89.20
2023-03-20T09:59:06.348Z,87.50
2023-03-20T10:01:46.003Z,87.60
2023-03-20T10:04:14.439Z,87.10
2023-03-20T10:06:46.628Z,86.90
2023-03-20T10:09:18.649Z,87.40
2023-03-20T10:12:10.015Z,88.70
2023-03-20T10:14:49.614Z,88.30
2023-03-20T10:17:29.760Z,88.40
2023-03-20T10:19:59.481Z,88.60
2023-03-20T10:22:33.941Z,88.30
2023-03-20T10:25:08.699Z,87.40
2023-03-20T10:27:41.110Z,87.30
2023-03-20T10:30:24.452Z,87.60
2023-03-20T10:33:01.955Z,87.80
2023-03-20T10:35:35.229Z,87.40
2023-03-20T10:38:23.971Z,87.30
2023-03-20T10:40:52.158Z,87.20
2023-03-20T10:43:24.201Z,87.30
2023-03-20T10:45:55.397Z,87.10
2023-03-20T10:48:28.166Z,86.90
2023-03-20T10:50:57.665Z,86.80
2023-03-20T10:53:32.978Z,86.60
2023-03-20T10:56:04.073Z,86.40
2023-03-20T10:58:35.124Z,86.50
2023-03-20T11:01:03.445Z,86.90
2023-03-20T11:03:34.183Z,86.80
2023-03-20T11:06:10.204Z,87.00
2023-03-20T11:08:43.810Z,87.10
2023-03-20T11:11:12.354Z,87.00
2023-03-20T11:13:44.700Z,87.00
2023-03-20T11:16:19.844Z,87.60
2023-03-20T11:18:49.195Z,87.50
2023-03-20T11:21:20.933Z,87.30
2023-03-20T11:23:50.901Z,87.20
2023-03-20T11:26:20.679Z,87.00
2023-03-20T11:28:52.207Z,87.00
2023-03-20T11:31:25.820Z,87.50
2023-03-20T11:34:01.665Z,87.70
2023-03-20T11:36:31.215Z,87.60
2023-03-20T11:39:07.782Z,87.80
2023-03-20T11:41:43.362Z,87.70
2023-03-20T11:44:23.736Z,87.60
2023-03-20T11:46:57.560Z,87.50
2023-03-20T11:49:27.707Z,87.70
2023-03-20T11:52:00.581Z,88.00
2023-03-20T11:54:31.139Z,87.80
2023-03-20T11:57:00.918Z,87.80
2023-03-20T11:59:33.934Z,87.70
2023-03-20T12:02:03.242Z,87.90
2023-03-20T12:04:33.800Z,88.20
2023-03-20T12:07:06.752Z,88.20
2023-03-20T12:09:44.263Z,89.00
2023-03-20T12:12:19.699Z,88.80
2023-03-20T12:14:55.779Z,88.80
2023-03-20T12:17:35.899Z,88.60
2023-03-20T12:20:13.637Z,88.80
2023-03-20T12:22:50.946Z,88.60
2023-03-20T12:25:25.370Z,88.10
2023-03-20T12:27:58.912Z,88.00
2023-03-20T12:30:34.197Z,88.10
2023-03-20T12:33:06.889Z,87.90
2023-03-20T12:35:38.955Z,88.10
2023-03-20T12:38:21.148Z,87.80
2023-03-20T12:40:54.838Z,88.00
2023-03-20T12:43:27.218Z,88.20
2023-03-20T12:46:02.871Z,88.30
2023-03-20T12:48:58.059Z,88.60
2023-03-20T12:51:39.191Z,89.30
2023-03-20T12:54:20.966Z,89.40
2023-03-20T12:57:03.273Z,89.90
2023-03-20T12:59:40.520Z,89.90
2023-03-20T13:02:20.543Z,89.70
2023-03-20T13:04:59.216Z,90.00
2023-03-20T13:07:51.472Z,89.80
2023-03-20T13:10:22.479Z,90.00
2023-03-20T13:13:07.769Z,89.80
2023-03-20T13:15:59.232Z,89.90
2023-03-20T13:18:37.819Z,90.00
2023-03-20T13:21:10.908Z,89.90
2023-03-20T13:23:46.283Z,90.20
2023-03-20T13:26:27.678Z,89.90
2023-03-20T13:29:04.304Z,89.90
2023-03-20T13:31:39.566Z,90.00
2023-03-20T13:34:21.334Z,90.00
2023-03-20T13:37:19.966Z,89.90
2023-03-20T13:40:04.445Z,90.10
2023-03-20T13:42:36.874Z,90.10
2023-03-20T13:45:15.345Z,90.10
2023-03-20T13:47:46.127Z,90.20
2023-03-20T13:50:29.807Z,90.10
2023-03-20T13:53:03.803Z,90.40
2023-03-20T13:55:38.812Z,90.40
2023-03-20T13:58:28.778Z,90.40
2023-03-20T14:01:04.352Z,90.50
2023-03-20T14:03:35.065Z,90.30
2023-03-20T14:06:16.557Z,90.30
2023-03-20T14:08:49.470Z,90.30
2023-03-20T14:11:35.459Z,90.30
2023-03-20T14:14:09.427Z,90.40
2023-03-20T14:16:39.115Z,90.30
2023-03-20T14:19:09.125Z,90.40
2023-03-20T14:21:37.830Z,90.20
2023-03-20T14:24:07.768Z,90.30
2023-03-20T14:26:39.130Z,90.50
2023-03-20T14:29:23.431Z,90.60
2023-03-20T14:31:52.762Z,90.70
2023-03-20T14:34:24.671Z,90.50
2023-03-20T14:36:58.495Z,90.50
2023-03-20T14:39:46.852Z,90.50
2023-03-20T14:42:27.804Z,90.50
2023-03-20T14:45:20.245Z,91.20
2023-03-20T14:47:57.152Z,90.60
2023-03-20T14:50:30.777Z,90.60
2023-03-20T14:53:09.806Z,90.70
2023-03-20T14:55:54.458Z,90.80
2023-03-20T14:58:57.759Z,90.90
2023-03-20T15:01:46.594Z,90.90
2023-03-20T15:04:28.234Z,90.80
2023-03-20T15:06:59.569Z,90.80
2023-03-20T15:09:30.749Z,90.90
2023-03-20T15:12:04.200Z,90.90
2023-03-20T15:14:41.490Z,91.00
2023-03-20T15:17:19.122Z,91.10
2023-03-20T15:19:50.363Z,91.10
2023-03-20T15:22:20.292Z,91.10
2023-03-20T15:24:55.777Z,91.20
2023-03-20T15:27:29.831Z,91.40
2023-03-20T15:30:01.344Z,91.40
2023-03-20T15:32:29.850Z,91.40
2023-03-20T15:34:59.261Z,91.40
2023-03-20T15:37:28.600Z,91.40
2023-03-20T15:39:59.037Z,91.40
2023-03-20T15:42:27.569Z,91.30
2023-03-20T15:44:56.709Z,91.30
2023-03-20T15:47:26.041Z,91.40
2023-03-20T15:49:55.714Z,91.30
2023-03-20T15:52:31.952Z,91.40
2023-03-20T15:55:05.186Z,91.60
2023-03-20T15:57:36.536Z,91.60
2023-03-20T16:00:07.338Z,91.50
2023-03-20T16:02:36.985Z,91.50
2023-03-20T16:05:06.224Z,91.50
2023-03-20T16:07:35.482Z,91.60
2023-03-20T16:10:03.529Z,91.60
2023-03-20T16:12:32.820Z,91.60
2023-03-20T16:15:00.816Z,91.50
2023-03-20T16:17:29.119Z,91.70
2023-03-20T16:19:57.124Z,91.70
2023-03-20T16:22:29.327Z,91.80
2023-03-20T16:25:02.151Z,91.90
2023-03-20T16:27:33.249Z,91.90
2023-03-20T16:30:05.198Z,91.90
2023-03-20T16:32:39.149Z,92.00
2023-03-20T16:35:16.176Z,92.10
2023-03-20T16:37:49.532Z,92.10
2023-03-20T16:40:22.380Z,92.00
2023-03-20T16:42:54.752Z,92.10
2023-03-20T16:45:29.584Z,92.00
2023-03-20T16:48:25.459Z,92.20
2023-03-20T16:51:04.037Z,92.30
2023-03-20T16:53:38.979Z,92.20
2023-03-20T16:56:15.947Z,92.30
2023-03-20T16:58:46.697Z,92.30
2023-03-20T17:01:21.124Z,92.30
2023-03-20T17:03:52.992Z,92.40
2023-03-20T17:06:37.216Z,92.40
2023-03-20T17:09:24.636Z,92.50
2023-03-20T17:12:01.298Z,91.70
2023-03-20T17:14:29.430Z,92.50
2023-03-20T17:16:57.963Z,92.30
2023-03-20T17:19:25.953Z,92.40
2023-03-20T17:21:54.585Z,92.40
2023-03-20T17:24:22.542Z,92.30
2023-03-20T17:26:56.140Z,92.50
2023-03-20T17:29:24.074Z,92.60
2023-03-20T17:31:52.687Z,92.50
2023-03-20T17:34:21.010Z,92.50
2023-03-20T17:36:49.584Z,92.60
2023-03-20T17:39:21.003Z,92.70
2023-03-20T17:41:49.315Z,92.80
2023-03-20T17:44:18.555Z,92.90
2023-03-20T17:46:57.805Z,92.70
2023-03-20T17:49:27.979Z,92.70
2023-03-20T17:51:58.836Z,92.80
2023-03-20T17:54:26.716Z,92.80
2023-03-20T17:56:54.726Z,92.80
2023-03-20T17:59:24.856Z,92.80
2023-03-20T18:01:52.891Z,92.90
2023-03-20T18:04:25.338Z,92.90
2023-03-20T18:06:53.592Z,93.00
2023-03-20T18:09:21.726Z,92.90
2023-03-20T18:11:49.606Z,93.00
2023-03-20T18:14:19.370Z,93.00
2023-03-20T18:16:48.693Z,93.10
2023-03-20T18:19:24.619Z,93.20
2023-03-20T18:21:52.915Z,93.20
2023-03-20T18:24:20.776Z,93.10
2023-03-20T18:26:48.833Z,93.10
2023-03-20T18:29:16.931Z,93.20
2023-03-20T18:31:47.060Z,93.20
2023-03-20T18:34:16.757Z,93.10
2023-03-20T18:36:46.282Z,93.30
2023-03-20T18:39:18.810Z,93.20
2023-03-20T18:41:47.194Z,93.40
2023-03-20T18:44:16.409Z,93.40
2023-03-20T18:46:45.224Z,93.30
2023-03-20T18:49:17.058Z,93.10
2023-03-20T18:51:46.769Z,93.50
2023-03-20T18:54:15.434Z,93.50
2023-03-20T18:56:45.083Z,93.40
2023-03-20T18:59:13.825Z,93.40
2023-03-20T19:01:41.750Z,93.40
2023-03-20T19:04:10.015Z,93.40
2023-03-20T19:06:39.368Z,93.40
2023-03-20T19:09:07.561Z,93.50
2023-03-20T19:11:35.805Z,93.50
2023-03-20T19:14:03.668Z,93.60
2023-03-20T19:16:34.903Z,93.60
2023-03-20T19:19:04.522Z,93.70
2023-03-20T19:21:34.661Z,93.70
2023-03-20T19:24:06.400Z,93.70
2023-03-20T19:26:36.142Z,93.80
2023-03-20T19:29:09.098Z,93.70
2023-03-20T19:31:37.477Z,93.80
2023-03-20T19:34:06.687Z,93.80
2023-03-20T19:36:37.186Z,93.70
2023-03-20T19:39:08.440Z,93.80
2023-03-20T19:41:36.531Z,93.90
2023-03-20T19:44:06.448Z,93.80
2023-03-20T19:46:40.795Z,93.80
2023-03-20T19:49:18.368Z,93.80
2023-03-20T19:51:47.126Z,94.00
2023-03-20T19:54:16.439Z,93.90
2023-03-20T19:56:45.012Z,94.00
2023-03-20T19:59:16.323Z,93.90
2023-03-20T20:01:46.978Z,94.00
2023-03-20T20:04:16.127Z,94.00
2023-03-20T20:06:47.496Z,94.10
2023-03-20T20:09:17.256Z,94.00
2023-03-20T20:11:46.037Z,94.20
2023-03-20T20:14:15.273Z,94.10
2023-03-20T20:16:45.889Z,94.20
2023-03-20T20:19:13.943Z,94.30
2023-03-20T20:24:31.147Z,94.20
2023-03-20T20:27:15.693Z,94.30
2023-03-20T20:29:47.159Z,94.30
2023-03-20T20:32:15.286Z,94.10
2023-03-20T20:40:23.765Z,94.30
2023-03-20T20:42:54.202Z,94.40
2023-03-20T20:45:23.571Z,94.80
2023-03-20T20:47:51.834Z,94.40
2023-03-20T20:50:21.877Z,94.30
2023-03-20T20:52:50.326Z,94.80
2023-03-20T20:55:23.406Z,94.30
2023-03-20T20:58:05.890Z,94.50
2023-03-20T21:00:48.056Z,94.50
2023-03-20T21:03:19.001Z,94.50
2023-03-20T21:05:46.866Z,94.50
2023-03-20T21:08:16.410Z,94.50
2023-03-20T21:10:46.853Z,94.50
2023-03-20T21:13:16.445Z,94.60
2023-03-20T21:15:46.460Z,94.70
2023-03-20T21:18:14.881Z,94.50
2023-03-20T21:20:42.898Z,94.50
2023-03-20T21:23:11.252Z,94.60
2023-03-20T21:25:41.585Z,94.60
2023-03-20T21:28:11.216Z,94.60
2023-03-20T21:30:54.618Z,94.70
2023-03-20T21:33:29.782Z,94.70
2023-03-20T21:35:57.843Z,94.50
2023-03-20T21:41:14.245Z,94.60
2023-03-20T21:43:43.404Z,94.60
2023-03-20T21:46:48.604Z,94.70
2023-03-20T21:50:12.368Z,94.80
2023-03-20T21:55:11.215Z,94.60
2023-03-20T22:01:03.245Z,94.50
2023-03-20T22:03:10.523Z,94.70
2023-03-20T22:09:20.207Z,94.60
2023-03-20T22:17:45.821Z,94.60
2023-03-20T22:20:26.240Z,94.60
2023-03-20T22:25:53.093Z,94.60
2023-03-20T22:34:25.827Z,94.50
2023-03-20T22:42:43.897Z,94.50
2023-03-20T22:45:01.904Z,94.90
2023-03-20T22:47:31.146Z,94.60
2023-03-20T22:49:59.069Z,94.60
2023-03-20T22:52:45.428Z,94.60
2023-03-20T22:55:16.410Z,94.90
2023-03-20T22:57:56.089Z,94.60
2023-03-20T23:00:27.894Z,94.60
2023-03-20T23:03:06.650Z,94.40
2023-03-20T23:05:39.873Z,94.60
2023-03-20T23:08:10.355Z,94.60
2023-03-20T23:10:40.386Z,94.70
2023-03-20T23:13:08.331Z,94.60
2023-03-20T23:15:36.499Z,94.60
2023-03-20T23:18:04.629Z,94.60
2023-03-20T23:20:32.682Z,94.70
2023-03-20T23:23:00.604Z,94.70
2023-03-20T23:25:38.612Z,94.60
2023-03-20T23:28:07.404Z,94.80
2023-03-20T23:30:46.570Z,94.70
2023-03-20T23:33:17.772Z,94.80
2023-03-20T23:35:48.364Z,94.80
2023-03-20T23:38:16.364Z,94.90
2023-03-20T23:40:51.106Z,94.90
2023-03-20T23:43:19.468Z,95.10
2023-03-20T23:45:47.574Z,94.80
2023-03-20T23:48:15.766Z,94.80
2023-03-20T23:53:32.219Z,94.90
2023-03-20T23:56:01.428Z,94.80
2023-03-20T23:58:29.669Z,94.90
